Thor Heyerdahl — DKQH — position and weather

sailwx.info

Track history (hours):
 
Tides and Currents Weather Stations Pressure Air Temp Water Temp Dewpoint Dewpoint Depression Visibility Wind Speed Wind Dir Waves Ship Positions

Thor Heyerdahl

Last reported at 2019-Aug-24 20:00 UTC. Time now 2019-Aug-24 20:31 UTC.
Position N 57°37' E 011°18'.

beam 6.5 m; draft 2.2 m.

Type: Sailing vessel. MMSI: 211232340.

Date/timePositionNaut miles runAvg speedWind from/ knotsBaromVisibWave heightAir tempDewpointWater temp
2019-Aug-24 20:00N 57°37' E 011°18'0 0.6
2019-Aug-24 19:30N 57°36' E 011°18'0 0.9
2019-Aug-24 19:00N 57°36' E 011°19'1 1.1
2019-Aug-24 18:30N 57°36' E 011°20'1 1.1
2019-Aug-24 18:00N 57°36' E 011°21'1 1.3
2019-Aug-24 17:30N 57°36' E 011°22'2 3.4
2019-Aug-24 17:00N 57°37' E 011°25'1 2.8
2019-Aug-24 16:30N 57°37' E 011°27'1 2.8
2019-Aug-24 16:01N 57°38' E 011°30'2 4.2
2019-Aug-24 15:31N 57°39' E 011°33'3 5.3
2019-Aug-24 15:01N 57°38' E 011°38'2 4.8
2019-Aug-24 14:30N 57°39' E 011°42'3 5.1
2019-Aug-24 14:01N 57°40' E 011°47'2 5.0
2019-Aug-24 13:30N 57°41' E 011°51'2 4.8
2019-Aug-24 13:00N 57°42' E 011°55'0 0.8
2019-Aug-24 12:29N 57°42' E 011°56'0 0.0
2019-Aug-24 11:58N 57°42' E 011°56'0 0.0
2019-Aug-24 11:28N 57°42' E 011°56'0 0.0
2019-Aug-24 10:55N 57°42' E 011°56'0 0.0
2019-Aug-24 10:28N 57°42' E 011°56'0 0.0
2019-Aug-24 09:55N 57°42' E 011°56'0 0.0
2019-Aug-24 09:25N 57°42' E 011°56'0 0.0
2019-Aug-24 08:55N 57°42' E 011°56'0 0.0
2019-Aug-24 08:28N 57°42' E 011°56'0 0.0
2019-Aug-24 07:58N 57°42' E 011°56'0 0.0
2019-Aug-24 07:28N 57°42' E 011°56'0 0.0
2019-Aug-24 06:58N 57°42' E 011°56'0 0.0
2019-Aug-24 06:28N 57°42' E 011°56'0 0.0
2019-Aug-24 05:58N 57°42' E 011°56'0 0.0
2019-Aug-24 05:28N 57°42' E 011°56'0 0.0
2019-Aug-24 04:55N 57°42' E 011°56'0 0.0
2019-Aug-24 04:28N 57°42' E 011°56'0 0.0
2019-Aug-24 03:58N 57°42' E 011°56'0 0.0
2019-Aug-24 03:28N 57°42' E 011°56'0 0.0
2019-Aug-24 02:58N 57°42' E 011°56'0 0.0
2019-Aug-24 02:28N 57°42' E 011°56'0 0.0
2019-Aug-24 01:58N 57°42' E 011°56'0 0.0
2019-Aug-24 01:28N 57°42' E 011°56'0 0.0
2019-Aug-24 00:58N 57°42' E 011°56'0 0.0
2019-Aug-24 00:25N 57°42' E 011°56'0 0.0
2019-Aug-23 23:58N 57°42' E 011°56'0 0.0
2019-Aug-23 23:28N 57°42' E 011°56'0 0.0
2019-Aug-23 22:58N 57°42' E 011°56'0 0.0
2019-Aug-23 22:28N 57°42' E 011°56'0 0.0
2019-Aug-23 21:58N 57°42' E 011°56'0 0.0
2019-Aug-23 21:28N 57°42' E 011°56'0 0.0
2019-Aug-23 20:58N 57°42' E 011°56'0 0.0
2019-Aug-23 20:28N 57°42' E 011°56'0 0.0
2019-Aug-23 19:58N 57°42' E 011°56'0 0.0
2019-Aug-23 19:25N 57°42' E 011°56'0 0.0
2019-Aug-23 18:58N 57°42' E 011°56'0 0.0
2019-Aug-23 18:25N 57°42' E 011°56'0 0.0
2019-Aug-23 17:58N 57°42' E 011°56'0 0.0
2019-Aug-23 17:28N 57°42' E 011°56'0 0.0
2019-Aug-23 16:58N 57°42' E 011°56'0 0.0
2019-Aug-23 16:28N 57°42' E 011°56'0 0.0
2019-Aug-23 15:58N 57°42' E 011°56'0 0.0
2019-Aug-23 15:28N 57°42' E 011°56'0 0.0
2019-Aug-23 14:58N 57°42' E 011°56'0 0.0
2019-Aug-23 14:28N 57°42' E 011°56'0 0.0
2019-Aug-23 13:58N 57°42' E 011°56'0 0.0
2019-Aug-23 13:28N 57°42' E 011°56'0 0.0
2019-Aug-23 12:55N 57°42' E 011°56'0 0.0
2019-Aug-23 12:25N 57°42' E 011°56'0 0.0
2019-Aug-23 11:58N 57°42' E 011°56'0 0.0
2019-Aug-23 11:28N 57°42' E 011°56'0 0.0
2019-Aug-23 10:58N 57°42' E 011°56'0 0.0
2019-Aug-23 10:28N 57°42' E 011°56'0 0.0
2019-Aug-23 09:58N 57°42' E 011°56'0 0.0
2019-Aug-23 09:28N 57°42' E 011°56'0 0.0
2019-Aug-23 08:58N 57°42' E 011°56'0 0.0
2019-Aug-23 08:28N 57°42' E 011°56'0 0.0
2019-Aug-23 07:58N 57°42' E 011°56'0 0.0
2019-Aug-23 07:28N 57°42' E 011°56'0 0.0
2019-Aug-23 07:00N 57°42' E 011°56'1 1.7
2019-Aug-23 06:30N 57°42' E 011°55'2 4.9
2019-Aug-23 06:00N 57°41' E 011°50'3 5.8
2019-Aug-23 05:30N 57°39' E 011°45'3 6.2
2019-Aug-23 05:00N 57°38' E 011°40'3 5.4
2019-Aug-23 04:30N 57°39' E 011°35'1 2.8
2019-Aug-23 04:00N 57°40' E 011°33'1 2.3
2019-Aug-23 03:30N 57°41' E 011°32'1 2.2
2019-Aug-23 03:00N 57°42' E 011°32'2 3.2
2019-Aug-23 02:30N 57°43' E 011°31'2 3.4
2019-Aug-23 02:00N 57°45' E 011°30'2 3.2
2019-Aug-23 01:30N 57°46' E 011°29'2 3.2
2019-Aug-23 01:01N 57°48' E 011°28'2 3.2
2019-Aug-23 00:30N 57°49' E 011°27'1 3.0
2019-Aug-23 00:00N 57°51' E 011°27'1 2.6
2019-Aug-22 23:31N 57°52' E 011°27'2 3.2
2019-Aug-22 23:01N 57°53' E 011°29'2 3.7
2019-Aug-22 22:30N 57°54' E 011°32'2 4.0
2019-Aug-22 22:00N 57°55' E 011°36'2 4.4
2019-Aug-22 21:31N 57°56' E 011°40'2 4.3
2019-Aug-22 21:00N 57°57' E 011°42'2 4.1
2019-Aug-22 20:30N 57°59' E 011°45'2 4.5
2019-Aug-22 20:00N 58°01' E 011°46'2 4.7
2019-Aug-22 19:31N 58°03' E 011°47'2 4.7
2019-Aug-22 19:00N 58°06' E 011°48'2 4.7
2019-Aug-22 18:30N 58°08' E 011°50'2 4.7
2019-Aug-22 18:00N 58°10' E 011°51'3 5.2
2019-Aug-22 17:30N 58°13' E 011°51'3 5.3
2019-Aug-22 17:00N 58°15' E 011°50'2 4.3
2019-Aug-22 16:26N 58°17' E 011°48'0 0.1
2019-Aug-22 15:03N 58°17' E 011°48'3 4.4
2019-Aug-22 14:25N 58°15' E 011°50'2 6.1
2019-Aug-22 14:00N 58°12' E 011°51'3 6.3
2019-Aug-22 13:31N 58°09' E 011°51'3 5.9
2019-Aug-22 13:00N 58°07' E 011°49'3 6.3
2019-Aug-22 12:30N 58°04' E 011°47'3 6.3
2019-Aug-22 12:00N 58°01' E 011°46'3 6.4
2019-Aug-22 11:30N 57°58' E 011°43'2 3.9
2019-Aug-22 10:59N 57°56' E 011°42'0 0.1
2019-Aug-22 10:25N 57°56' E 011°42'0 0.0
2019-Aug-22 09:55N 57°56' E 011°42'0 0.0
2019-Aug-22 09:28N 57°56' E 011°42'0 0.0
2019-Aug-22 08:55N 57°56' E 011°42'0 0.0
2019-Aug-22 08:28N 57°56' E 011°42'0 0.0
2019-Aug-22 07:58N 57°56' E 011°42'0 0.0
2019-Aug-22 07:28N 57°56' E 011°42'0 0.0
2019-Aug-22 06:46N 57°56' E 011°42'0 0.0
2019-Aug-22 06:25N 57°56' E 011°42'0 0.0
2019-Aug-22 05:58N 57°56' E 011°42'0 0.0
2019-Aug-22 05:28N 57°56' E 011°42'0 0.0
2019-Aug-22 04:58N 57°56' E 011°42'0 0.0
2019-Aug-22 04:28N 57°56' E 011°42'0 0.0
2019-Aug-22 03:58N 57°56' E 011°42'0 0.0
2019-Aug-22 03:28N 57°56' E 011°42'0 0.0
2019-Aug-22 02:55N 57°56' E 011°42'0 0.0
2019-Aug-22 02:22N 57°56' E 011°42'0 0.0
2019-Aug-22 01:58N 57°56' E 011°42'0 0.0
2019-Aug-22 01:28N 57°56' E 011°42'0 0.0
2019-Aug-22 00:52N 57°56' E 011°42'0 0.0
2019-Aug-22 00:25N 57°56' E 011°42'0 0.0
2019-Aug-21 23:58N 57°56' E 011°42'0 0.0
2019-Aug-21 23:25N 57°56' E 011°42'0 0.0
2019-Aug-21 22:55N 57°56' E 011°42'0 0.0
2019-Aug-21 22:28N 57°56' E 011°42'0 0.0
2019-Aug-21 21:58N 57°56' E 011°42'0 0.0
2019-Aug-21 21:25N 57°56' E 011°42'0 0.0
2019-Aug-21 20:58N 57°56' E 011°42'0 0.0
2019-Aug-21 20:28N 57°56' E 011°42'0 0.0
2019-Aug-21 19:58N 57°56' E 011°42'0 0.0
2019-Aug-21 19:28N 57°56' E 011°42'0 0.0
2019-Aug-21 18:58N 57°56' E 011°42'0 0.0
2019-Aug-21 18:28N 57°56' E 011°42'0 0.0
2019-Aug-21 17:58N 57°56' E 011°42'0 0.0
2019-Aug-21 17:28N 57°56' E 011°42'0 0.0
2019-Aug-21 16:58N 57°56' E 011°42'0 0.0
2019-Aug-21 16:28N 57°56' E 011°42'0 0.0
2019-Aug-21 15:52N 57°56' E 011°42'0 0.0
2019-Aug-21 15:28N 57°56' E 011°42'0 0.0
2019-Aug-21 14:58N 57°56' E 011°42'0 0.0
2019-Aug-21 14:22N 57°56' E 011°42'1 3.2
2019-Aug-21 14:00N 57°56' E 011°40'3 5.9
2019-Aug-21 13:30N 57°55' E 011°35'3 6.1
2019-Aug-21 13:00N 57°53' E 011°30'2 5.0
2019-Aug-21 12:30N 57°53' E 011°25'3 5.6
2019-Aug-21 12:00N 57°55' E 011°24'3 5.3
2019-Aug-21 11:31N 57°58' E 011°22'3 5.0
2019-Aug-21 11:00N 58°00' E 011°21'3 5.2
2019-Aug-21 10:30N 58°03' E 011°19'2 4.9
2019-Aug-21 10:01N 58°05' E 011°19'2 4.5
2019-Aug-21 09:30N 58°07' E 011°19'2 3.7
2019-Aug-21 09:00N 58°09' E 011°20'2 3.2
2019-Aug-21 08:31N 58°10' E 011°22'2 3.3
2019-Aug-21 08:00N 58°11' E 011°25'1 0.0
2019-Aug-19 06:39N 58°11' E 011°27'0 2.6
2019-Aug-19 06:27N 58°11' E 011°26'1 3.1
2019-Aug-19 06:00N 58°11' E 011°23'3 5.1
2019-Aug-19 05:30N 58°09' E 011°20'3 5.3
2019-Aug-19 05:00N 58°07' E 011°17'3 6.3
2019-Aug-19 04:30N 58°04' E 011°17'3 6.0
2019-Aug-19 04:01N 58°01' E 011°18'2 4.9
2019-Aug-19 03:31N 57°58' E 011°19'3 5.5
2019-Aug-19 03:01N 57°56' E 011°18'3 5.5
2019-Aug-19 02:31N 57°53' E 011°19'3 5.7
2019-Aug-19 02:01N 57°50' E 011°20'3 5.4
2019-Aug-19 01:31N 57°48' E 011°22'3 5.5
2019-Aug-19 01:01N 57°45' E 011°24'3 5.5
2019-Aug-19 00:31N 57°43' E 011°25'3 5.4
2019-Aug-19 00:01N 57°40' E 011°27'3 5.7
2019-Aug-18 23:31N 57°37' E 011°29'2 5.0
2019-Aug-18 23:01N 57°35' E 011°31'3 5.5
2019-Aug-18 22:31N 57°33' E 011°33'3 5.4
2019-Aug-18 22:01N 57°30' E 011°35'2 4.2
2019-Aug-18 21:30N 57°28' E 011°37'2 4.7
2019-Aug-18 21:01N 57°26' E 011°39'2 4.3
2019-Aug-18 20:30N 57°24' E 011°40'2 4.0
2019-Aug-18 20:01N 57°22' E 011°42'2 3.5
2019-Aug-18 19:31N 57°21' E 011°42'2 4.3
2019-Aug-18 19:00N 57°19' E 011°43'2 3.9
2019-Aug-18 18:31N 57°17' E 011°45'2 3.6
2019-Aug-18 18:00N 57°15' E 011°47'2 3.2
2019-Aug-18 17:31N 57°14' E 011°49'2 3.7
2019-Aug-18 17:00N 57°13' E 011°51'2 3.4
2019-Aug-18 16:31N 57°11' E 011°52'2 4.1
2019-Aug-18 16:00N 57°09' E 011°54'2 3.7
2019-Aug-18 15:30N 57°08' E 011°55'2 4.1
2019-Aug-18 14:59N 57°06' E 011°57'60 2.6
2019-Aug-17 15:54N 56°09' E 012°31'2 4.2
2019-Aug-17 15:29N 56°07' E 012°33'3 5.9
2019-Aug-17 14:59N 56°05' E 012°36'3 7.2
2019-Aug-17 14:31N 56°03' E 012°40'3 6.8
2019-Aug-17 14:01N 55°59' E 012°41'3 5.6
2019-Aug-17 13:31N 55°57' E 012°40'3 5.2
2019-Aug-17 13:01N 55°54' E 012°40'3 6.0
2019-Aug-17 12:31N 55°51' E 012°42'3 5.7
2019-Aug-17 12:01N 55°48' E 012°43'3 5.6
2019-Aug-17 11:31N 55°46' E 012°41'3 5.3
2019-Aug-17 11:00N 55°43' E 012°39'2 4.8
2019-Aug-17 10:30N 55°41' E 012°36'0 0.9
2019-Aug-17 09:59N 55°41' E 012°36'0 0.0
2019-Aug-17 09:29N 55°41' E 012°36'0 0.0
2019-Aug-17 08:59N 55°41' E 012°36'0 0.0
2019-Aug-17 08:29N 55°41' E 012°36'0 0.0
2019-Aug-17 07:59N 55°41' E 012°36'0 0.0
2019-Aug-17 07:29N 55°41' E 012°36'0 0.0
2019-Aug-17 06:59N 55°41' E 012°36'0 0.0
2019-Aug-17 06:29N 55°41' E 012°36'0 0.0
2019-Aug-17 05:59N 55°41' E 012°36'0 0.0
2019-Aug-17 05:29N 55°41' E 012°36'0 0.0
2019-Aug-17 04:59N 55°41' E 012°36'0 0.0
2019-Aug-17 04:29N 55°41' E 012°36'0 0.0
2019-Aug-17 03:59N 55°41' E 012°36'0 0.0
2019-Aug-17 03:29N 55°41' E 012°36'0 0.0
2019-Aug-17 02:59N 55°41' E 012°36'0 0.0
2019-Aug-17 02:29N 55°41' E 012°36'0 0.0
2019-Aug-17 01:59N 55°41' E 012°36'0 0.0
2019-Aug-17 01:29N 55°41' E 012°36'0 0.0
2019-Aug-17 00:59N 55°41' E 012°36'0 0.0
2019-Aug-17 00:29N 55°41' E 012°36'0 0.0
2019-Aug-16 23:59N 55°41' E 012°36'0 0.0
2019-Aug-16 23:29N 55°41' E 012°36'0 0.0
2019-Aug-16 22:59N 55°41' E 012°36'0 0.0
2019-Aug-16 22:29N 55°41' E 012°36'0 0.0
2019-Aug-16 21:59N 55°41' E 012°36'0 0.0
2019-Aug-16 21:29N 55°41' E 012°36'0 0.0
2019-Aug-16 20:59N 55°41' E 012°36'0 0.0
2019-Aug-16 20:29N 55°41' E 012°36'0 0.0
2019-Aug-16 19:59N 55°41' E 012°36'0 0.0
2019-Aug-16 19:29N 55°41' E 012°36'0 0.0
2019-Aug-16 18:59N 55°41' E 012°36'0 0.0
2019-Aug-16 18:29N 55°41' E 012°36'0 0.0
2019-Aug-16 17:59N 55°41' E 012°36'0 0.0
2019-Aug-16 17:29N 55°41' E 012°36'0 0.0
2019-Aug-16 16:59N 55°41' E 012°36'0 0.0
2019-Aug-16 16:29N 55°41' E 012°36'0 0.0
2019-Aug-16 15:59N 55°41' E 012°36'0 0.0
2019-Aug-16 15:29N 55°41' E 012°36'0 0.0
2019-Aug-16 14:59N 55°41' E 012°36'0 0.0
2019-Aug-16 14:29N 55°41' E 012°36'0 0.0
2019-Aug-16 13:59N 55°41' E 012°36'0 0.0
2019-Aug-16 13:29N 55°41' E 012°36'0 0.0
2019-Aug-16 12:59N 55°41' E 012°36'0 0.0
2019-Aug-16 12:29N 55°41' E 012°36'0 0.0
2019-Aug-16 11:59N 55°41' E 012°36'0 0.0
2019-Aug-16 11:29N 55°41' E 012°36'0 0.0
2019-Aug-16 10:59N 55°41' E 012°36'0 0.0
2019-Aug-16 10:29N 55°41' E 012°36'0 0.0
2019-Aug-16 09:59N 55°41' E 012°36'0 0.0
2019-Aug-16 09:29N 55°41' E 012°36'0 0.0
2019-Aug-16 08:59N 55°41' E 012°36'0 0.0
2019-Aug-16 08:29N 55°41' E 012°36'0 0.0
2019-Aug-16 07:59N 55°41' E 012°36'0 0.0
2019-Aug-16 07:29N 55°41' E 012°36'0 0.1
2019-Aug-16 06:56N 55°41' E 012°36'0 0.0
2019-Aug-16 06:29N 55°41' E 012°36'0 0.0
2019-Aug-16 05:59N 55°41' E 012°36'0 0.0
2019-Aug-16 05:29N 55°41' E 012°36'0 0.0
2019-Aug-16 04:56N 55°41' E 012°36'0 0.0
2019-Aug-16 04:29N 55°41' E 012°36'0 0.0
2019-Aug-16 03:59N 55°41' E 012°36'0 0.0
2019-Aug-16 03:29N 55°41' E 012°36'0 0.0
2019-Aug-16 02:59N 55°41' E 012°36'0 0.0
2019-Aug-16 02:29N 55°41' E 012°36'0 0.0
2019-Aug-16 01:59N 55°41' E 012°36'0 0.0
2019-Aug-16 01:29N 55°41' E 012°36'0 0.0
2019-Aug-16 00:59N 55°41' E 012°36'0 0.0
2019-Aug-16 00:29N 55°41' E 012°36'0 0.0
2019-Aug-15 23:59N 55°41' E 012°36'0 0.0
2019-Aug-15 23:29N 55°41' E 012°36'0 0.0
2019-Aug-15 22:59N 55°41' E 012°36'0 0.0
2019-Aug-15 22:29N 55°41' E 012°36'0 0.0
2019-Aug-15 21:59N 55°41' E 012°36'0 0.0
2019-Aug-15 21:29N 55°41' E 012°36'0 0.0
2019-Aug-15 20:59N 55°41' E 012°36'0 0.0
2019-Aug-15 20:26N 55°41' E 012°36'0 0.0
2019-Aug-15 19:59N 55°41' E 012°36'0 0.0
2019-Aug-15 19:29N 55°41' E 012°36'0 0.0
2019-Aug-15 18:56N 55°41' E 012°36'0 0.0
2019-Aug-15 18:29N 55°41' E 012°36'0 0.0
2019-Aug-15 17:59N 55°41' E 012°36'0 0.0
2019-Aug-15 17:23N 55°41' E 012°36'0 0.0
2019-Aug-15 16:59N 55°41' E 012°36'0 0.0
2019-Aug-15 16:29N 55°41' E 012°36'0 0.0
2019-Aug-15 15:59N 55°41' E 012°36'0 0.0
2019-Aug-15 15:29N 55°41' E 012°36'0 0.0
2019-Aug-15 14:59N 55°41' E 012°36'0 0.0
2019-Aug-15 14:29N 55°41' E 012°36'0 0.0
2019-Aug-15 13:59N 55°41' E 012°36'0 0.0
2019-Aug-15 13:29N 55°41' E 012°36'0 0.0
2019-Aug-15 12:59N 55°41' E 012°36'0 0.0
2019-Aug-15 12:29N 55°41' E 012°36'0 0.0
2019-Aug-15 11:59N 55°41' E 012°36'0 0.0
2019-Aug-15 11:23N 55°41' E 012°36'0 0.0
2019-Aug-15 10:56N 55°41' E 012°36'0 0.0
2019-Aug-15 10:29N 55°41' E 012°36'0 0.0
2019-Aug-15 09:59N 55°41' E 012°36'0 0.0
2019-Aug-15 09:29N 55°41' E 012°36'0 0.0
2019-Aug-15 08:59N 55°41' E 012°36'0 0.0
2019-Aug-15 08:29N 55°41' E 012°36'0 0.0
2019-Aug-15 07:59N 55°41' E 012°36'0 0.0
2019-Aug-15 07:29N 55°41' E 012°36'0 0.0
2019-Aug-15 06:59N 55°41' E 012°36'0 0.0
2019-Aug-15 06:29N 55°41' E 012°36'0 0.0
2019-Aug-15 05:59N 55°41' E 012°36'0 0.0
2019-Aug-15 05:29N 55°41' E 012°36'0 0.0
2019-Aug-15 04:59N 55°41' E 012°36'0 0.0
2019-Aug-15 04:29N 55°41' E 012°36'0 0.0
2019-Aug-15 03:59N 55°41' E 012°36'0 0.0
2019-Aug-15 03:29N 55°41' E 012°36'0 0.0
2019-Aug-15 02:59N 55°41' E 012°36'0 0.0
2019-Aug-15 02:29N 55°41' E 012°36'0 0.0
2019-Aug-15 01:59N 55°41' E 012°36'0 0.0
2019-Aug-15 01:29N 55°41' E 012°36'0 0.0
2019-Aug-15 00:59N 55°41' E 012°36'0 0.0
2019-Aug-15 00:29N 55°41' E 012°36'0 0.0
2019-Aug-14 23:59N 55°41' E 012°36'0 0.0
2019-Aug-14 23:29N 55°41' E 012°36'0 0.0
2019-Aug-14 22:59N 55°41' E 012°36'0 0.0
2019-Aug-14 22:29N 55°41' E 012°36'0 0.0
2019-Aug-14 21:59N 55°41' E 012°36'0 0.0
2019-Aug-14 21:29N 55°41' E 012°36'0 0.0
2019-Aug-14 20:59N 55°41' E 012°36'0 0.1
2019-Aug-14 20:30N 55°41' E 012°36'1 2.4
2019-Aug-14 20:00N 55°42' E 012°36'  
Track history (hours):
 
Tides and Currents Weather Stations Pressure Air Temp Water Temp Dewpoint Dewpoint Depression Visibility Wind Speed Wind Dir Waves Ship Positions

Thor Heyerdahl

Last reported at 2019-Aug-24 20:00 UTC. Time now 2019-Aug-24 20:31 UTC.
Position N 57°37' E 011°18'.

beam 6.5 m; draft 2.2 m.

Type: Sailing vessel. MMSI: 211232340.

Date/timePositionNaut miles runAvg speedWind from/ knotsBaromVisibWave heightAir tempDewpointWater temp
2019-Aug-24 20:00N 57°37' E 011°18'0 0.6
2019-Aug-24 19:30N 57°36' E 011°18'0 0.9
2019-Aug-24 19:00N 57°36' E 011°19'1 1.1
2019-Aug-24 18:30N 57°36' E 011°20'1 1.1
2019-Aug-24 18:00N 57°36' E 011°21'1 1.3
2019-Aug-24 17:30N 57°36' E 011°22'2 3.4
2019-Aug-24 17:00N 57°37' E 011°25'1 2.8
2019-Aug-24 16:30N 57°37' E 011°27'1 2.8
2019-Aug-24 16:01N 57°38' E 011°30'2 4.2
2019-Aug-24 15:31N 57°39' E 011°33'3 5.3
2019-Aug-24 15:01N 57°38' E 011°38'2 4.8
2019-Aug-24 14:30N 57°39' E 011°42'3 5.1
2019-Aug-24 14:01N 57°40' E 011°47'2 5.0
2019-Aug-24 13:30N 57°41' E 011°51'2 4.8
2019-Aug-24 13:00N 57°42' E 011°55'0 0.8
2019-Aug-24 12:29N 57°42' E 011°56'0 0.0
2019-Aug-24 11:58N 57°42' E 011°56'0 0.0
2019-Aug-24 11:28N 57°42' E 011°56'0 0.0
2019-Aug-24 10:55N 57°42' E 011°56'0 0.0
2019-Aug-24 10:28N 57°42' E 011°56'0 0.0
2019-Aug-24 09:55N 57°42' E 011°56'0 0.0
2019-Aug-24 09:25N 57°42' E 011°56'0 0.0
2019-Aug-24 08:55N 57°42' E 011°56'0 0.0
2019-Aug-24 08:28N 57°42' E 011°56'0 0.0
2019-Aug-24 07:58N 57°42' E 011°56'0 0.0
2019-Aug-24 07:28N 57°42' E 011°56'0 0.0
2019-Aug-24 06:58N 57°42' E 011°56'0 0.0
2019-Aug-24 06:28N 57°42' E 011°56'0 0.0
2019-Aug-24 05:58N 57°42' E 011°56'0 0.0
2019-Aug-24 05:28N 57°42' E 011°56'0 0.0
2019-Aug-24 04:55N 57°42' E 011°56'0 0.0
2019-Aug-24 04:28N 57°42' E 011°56'0 0.0
2019-Aug-24 03:58N 57°42' E 011°56'0 0.0
2019-Aug-24 03:28N 57°42' E 011°56'0 0.0
2019-Aug-24 02:58N 57°42' E 011°56'0 0.0
2019-Aug-24 02:28N 57°42' E 011°56'0 0.0
2019-Aug-24 01:58N 57°42' E 011°56'0 0.0
2019-Aug-24 01:28N 57°42' E 011°56'0 0.0
2019-Aug-24 00:58N 57°42' E 011°56'0 0.0
2019-Aug-24 00:25N 57°42' E 011°56'0 0.0
2019-Aug-23 23:58N 57°42' E 011°56'0 0.0
2019-Aug-23 23:28N 57°42' E 011°56'0 0.0
2019-Aug-23 22:58N 57°42' E 011°56'0 0.0
2019-Aug-23 22:28N 57°42' E 011°56'0 0.0
2019-Aug-23 21:58N 57°42' E 011°56'0 0.0
2019-Aug-23 21:28N 57°42' E 011°56'0 0.0
2019-Aug-23 20:58N 57°42' E 011°56'0 0.0
2019-Aug-23 20:28N 57°42' E 011°56'0 0.0
2019-Aug-23 19:58N 57°42' E 011°56'0 0.0
2019-Aug-23 19:25N 57°42' E 011°56'0 0.0
2019-Aug-23 18:58N 57°42' E 011°56'0 0.0
2019-Aug-23 18:25N 57°42' E 011°56'0 0.0
2019-Aug-23 17:58N 57°42' E 011°56'0 0.0
2019-Aug-23 17:28N 57°42' E 011°56'0 0.0
2019-Aug-23 16:58N 57°42' E 011°56'0 0.0
2019-Aug-23 16:28N 57°42' E 011°56'0 0.0
2019-Aug-23 15:58N 57°42' E 011°56'0 0.0
2019-Aug-23 15:28N 57°42' E 011°56'0 0.0
2019-Aug-23 14:58N 57°42' E 011°56'0 0.0
2019-Aug-23 14:28N 57°42' E 011°56'0 0.0
2019-Aug-23 13:58N 57°42' E 011°56'0 0.0
2019-Aug-23 13:28N 57°42' E 011°56'0 0.0
2019-Aug-23 12:55N 57°42' E 011°56'0 0.0
2019-Aug-23 12:25N 57°42' E 011°56'0 0.0
2019-Aug-23 11:58N 57°42' E 011°56'0 0.0
2019-Aug-23 11:28N 57°42' E 011°56'0 0.0
2019-Aug-23 10:58N 57°42' E 011°56'0 0.0
2019-Aug-23 10:28N 57°42' E 011°56'0 0.0
2019-Aug-23 09:58N 57°42' E 011°56'0 0.0
2019-Aug-23 09:28N 57°42' E 011°56'0 0.0
2019-Aug-23 08:58N 57°42' E 011°56'0 0.0
2019-Aug-23 08:28N 57°42' E 011°56'0 0.0
2019-Aug-23 07:58N 57°42' E 011°56'0 0.0
2019-Aug-23 07:28N 57°42' E 011°56'0 0.0
2019-Aug-23 07:00N 57°42' E 011°56'1 1.7
2019-Aug-23 06:30N 57°42' E 011°55'2 4.9
2019-Aug-23 06:00N 57°41' E 011°50'3 5.8
2019-Aug-23 05:30N 57°39' E 011°45'3 6.2
2019-Aug-23 05:00N 57°38' E 011°40'3 5.4
2019-Aug-23 04:30N 57°39' E 011°35'1 2.8
2019-Aug-23 04:00N 57°40' E 011°33'1 2.3
2019-Aug-23 03:30N 57°41' E 011°32'1 2.2
2019-Aug-23 03:00N 57°42' E 011°32'2 3.2
2019-Aug-23 02:30N 57°43' E 011°31'2 3.4
2019-Aug-23 02:00N 57°45' E 011°30'2 3.2
2019-Aug-23 01:30N 57°46' E 011°29'2 3.2
2019-Aug-23 01:01N 57°48' E 011°28'2 3.2
2019-Aug-23 00:30N 57°49' E 011°27'1 3.0
2019-Aug-23 00:00N 57°51' E 011°27'1 2.6
2019-Aug-22 23:31N 57°52' E 011°27'2 3.2
2019-Aug-22 23:01N 57°53' E 011°29'2 3.7
2019-Aug-22 22:30N 57°54' E 011°32'2 4.0
2019-Aug-22 22:00N 57°55' E 011°36'2 4.4
2019-Aug-22 21:31N 57°56' E 011°40'2 4.3
2019-Aug-22 21:00N 57°57' E 011°42'2 4.1
2019-Aug-22 20:30N 57°59' E 011°45'2 4.5
2019-Aug-22 20:00N 58°01' E 011°46'2 4.7
2019-Aug-22 19:31N 58°03' E 011°47'2 4.7
2019-Aug-22 19:00N 58°06' E 011°48'2 4.7
2019-Aug-22 18:30N 58°08' E 011°50'2 4.7
2019-Aug-22 18:00N 58°10' E 011°51'3 5.2
2019-Aug-22 17:30N 58°13' E 011°51'3 5.3
2019-Aug-22 17:00N 58°15' E 011°50'2 4.3
2019-Aug-22 16:26N 58°17' E 011°48'0 0.1
2019-Aug-22 15:03N 58°17' E 011°48'3 4.4
2019-Aug-22 14:25N 58°15' E 011°50'2 6.1
2019-Aug-22 14:00N 58°12' E 011°51'3 6.3
2019-Aug-22 13:31N 58°09' E 011°51'3 5.9
2019-Aug-22 13:00N 58°07' E 011°49'3 6.3
2019-Aug-22 12:30N 58°04' E 011°47'3 6.3
2019-Aug-22 12:00N 58°01' E 011°46'3 6.4
2019-Aug-22 11:30N 57°58' E 011°43'2 3.9
2019-Aug-22 10:59N 57°56' E 011°42'0 0.1
2019-Aug-22 10:25N 57°56' E 011°42'0 0.0
2019-Aug-22 09:55N 57°56' E 011°42'0 0.0
2019-Aug-22 09:28N 57°56' E 011°42'0 0.0
2019-Aug-22 08:55N 57°56' E 011°42'0 0.0
2019-Aug-22 08:28N 57°56' E 011°42'0 0.0
2019-Aug-22 07:58N 57°56' E 011°42'0 0.0
2019-Aug-22 07:28N 57°56' E 011°42'0 0.0
2019-Aug-22 06:46N 57°56' E 011°42'0 0.0
2019-Aug-22 06:25N 57°56' E 011°42'0 0.0
2019-Aug-22 05:58N 57°56' E 011°42'0 0.0
2019-Aug-22 05:28N 57°56' E 011°42'0 0.0
2019-Aug-22 04:58N 57°56' E 011°42'0 0.0
2019-Aug-22 04:28N 57°56' E 011°42'0 0.0
2019-Aug-22 03:58N 57°56' E 011°42'0 0.0
2019-Aug-22 03:28N 57°56' E 011°42'0 0.0
2019-Aug-22 02:55N 57°56' E 011°42'0 0.0
2019-Aug-22 02:22N 57°56' E 011°42'0 0.0
2019-Aug-22 01:58N 57°56' E 011°42'0 0.0
2019-Aug-22 01:28N 57°56' E 011°42'0 0.0
2019-Aug-22 00:52N 57°56' E 011°42'0 0.0
2019-Aug-22 00:25N 57°56' E 011°42'0 0.0
2019-Aug-21 23:58N 57°56' E 011°42'0 0.0
2019-Aug-21 23:25N 57°56' E 011°42'0 0.0
2019-Aug-21 22:55N 57°56' E 011°42'0 0.0
2019-Aug-21 22:28N 57°56' E 011°42'0 0.0
2019-Aug-21 21:58N 57°56' E 011°42'0 0.0
2019-Aug-21 21:25N 57°56' E 011°42'0 0.0
2019-Aug-21 20:58N 57°56' E 011°42'0 0.0
2019-Aug-21 20:28N 57°56' E 011°42'0 0.0
2019-Aug-21 19:58N 57°56' E 011°42'0 0.0
2019-Aug-21 19:28N 57°56' E 011°42'0 0.0
2019-Aug-21 18:58N 57°56' E 011°42'0 0.0
2019-Aug-21 18:28N 57°56' E 011°42'0 0.0
2019-Aug-21 17:58N 57°56' E 011°42'0 0.0
2019-Aug-21 17:28N 57°56' E 011°42'0 0.0
2019-Aug-21 16:58N 57°56' E 011°42'0 0.0
2019-Aug-21 16:28N 57°56' E 011°42'0 0.0
2019-Aug-21 15:52N 57°56' E 011°42'0 0.0
2019-Aug-21 15:28N 57°56' E 011°42'0 0.0
2019-Aug-21 14:58N 57°56' E 011°42'0 0.0
2019-Aug-21 14:22N 57°56' E 011°42'1 3.2
2019-Aug-21 14:00N 57°56' E 011°40'3 5.9
2019-Aug-21 13:30N 57°55' E 011°35'3 6.1
2019-Aug-21 13:00N 57°53' E 011°30'2 5.0
2019-Aug-21 12:30N 57°53' E 011°25'3 5.6
2019-Aug-21 12:00N 57°55' E 011°24'3 5.3
2019-Aug-21 11:31N 57°58' E 011°22'3 5.0
2019-Aug-21 11:00N 58°00' E 011°21'3 5.2
2019-Aug-21 10:30N 58°03' E 011°19'2 4.9
2019-Aug-21 10:01N 58°05' E 011°19'2 4.5
2019-Aug-21 09:30N 58°07' E 011°19'2 3.7
2019-Aug-21 09:00N 58°09' E 011°20'2 3.2
2019-Aug-21 08:31N 58°10' E 011°22'2 3.3
2019-Aug-21 08:00N 58°11' E 011°25'1 0.0
2019-Aug-19 06:39N 58°11' E 011°27'0 2.6
2019-Aug-19 06:27N 58°11' E 011°26'1 3.1
2019-Aug-19 06:00N 58°11' E 011°23'3 5.1
2019-Aug-19 05:30N 58°09' E 011°20'3 5.3
2019-Aug-19 05:00N 58°07' E 011°17'3 6.3
2019-Aug-19 04:30N 58°04' E 011°17'3 6.0
2019-Aug-19 04:01N 58°01' E 011°18'2 4.9
2019-Aug-19 03:31N 57°58' E 011°19'3 5.5
2019-Aug-19 03:01N 57°56' E 011°18'3 5.5
2019-Aug-19 02:31N 57°53' E 011°19'3 5.7
2019-Aug-19 02:01N 57°50' E 011°20'3 5.4
2019-Aug-19 01:31N 57°48' E 011°22'3 5.5
2019-Aug-19 01:01N 57°45' E 011°24'3 5.5
2019-Aug-19 00:31N 57°43' E 011°25'3 5.4
2019-Aug-19 00:01N 57°40' E 011°27'3 5.7
2019-Aug-18 23:31N 57°37' E 011°29'2 5.0
2019-Aug-18 23:01N 57°35' E 011°31'3 5.5
2019-Aug-18 22:31N 57°33' E 011°33'3 5.4
2019-Aug-18 22:01N 57°30' E 011°35'2 4.2
2019-Aug-18 21:30N 57°28' E 011°37'2 4.7
2019-Aug-18 21:01N 57°26' E 011°39'2 4.3
2019-Aug-18 20:30N 57°24' E 011°40'2 4.0
2019-Aug-18 20:01N 57°22' E 011°42'2 3.5
2019-Aug-18 19:31N 57°21' E 011°42'2 4.3
2019-Aug-18 19:00N 57°19' E 011°43'2 3.9
2019-Aug-18 18:31N 57°17' E 011°45'2 3.6
2019-Aug-18 18:00N 57°15' E 011°47'2 3.2
2019-Aug-18 17:31N 57°14' E 011°49'2 3.7
2019-Aug-18 17:00N 57°13' E 011°51'2 3.4
2019-Aug-18 16:31N 57°11' E 011°52'2 4.1
2019-Aug-18 16:00N 57°09' E 011°54'2 3.7
2019-Aug-18 15:30N 57°08' E 011°55'2 4.1
2019-Aug-18 14:59N 57°06' E 011°57'60 2.6
2019-Aug-17 15:54N 56°09' E 012°31'2 4.2
2019-Aug-17 15:29N 56°07' E 012°33'3 5.9
2019-Aug-17 14:59N 56°05' E 012°36'3 7.2
2019-Aug-17 14:31N 56°03' E 012°40'3 6.8
2019-Aug-17 14:01N 55°59' E 012°41'3 5.6
2019-Aug-17 13:31N 55°57' E 012°40'3 5.2
2019-Aug-17 13:01N 55°54' E 012°40'3 6.0
2019-Aug-17 12:31N 55°51' E 012°42'3 5.7
2019-Aug-17 12:01N 55°48' E 012°43'3 5.6
2019-Aug-17 11:31N 55°46' E 012°41'3 5.3
2019-Aug-17 11:00N 55°43' E 012°39'2 4.8
2019-Aug-17 10:30N 55°41' E 012°36'0 0.9
2019-Aug-17 09:59N 55°41' E 012°36'0 0.0
2019-Aug-17 09:29N 55°41' E 012°36'0 0.0
2019-Aug-17 08:59N 55°41' E 012°36'0 0.0
2019-Aug-17 08:29N 55°41' E 012°36'0 0.0
2019-Aug-17 07:59N 55°41' E 012°36'0 0.0
2019-Aug-17 07:29N 55°41' E 012°36'0 0.0
2019-Aug-17 06:59N 55°41' E 012°36'0 0.0
2019-Aug-17 06:29N 55°41' E 012°36'0 0.0
2019-Aug-17 05:59N 55°41' E 012°36'0 0.0
2019-Aug-17 05:29N 55°41' E 012°36'0 0.0
2019-Aug-17 04:59N 55°41' E 012°36'0 0.0
2019-Aug-17 04:29N 55°41' E 012°36'0 0.0
2019-Aug-17 03:59N 55°41' E 012°36'0 0.0
2019-Aug-17 03:29N 55°41' E 012°36'0 0.0
2019-Aug-17 02:59N 55°41' E 012°36'0 0.0
2019-Aug-17 02:29N 55°41' E 012°36'0 0.0
2019-Aug-17 01:59N 55°41' E 012°36'0 0.0
2019-Aug-17 01:29N 55°41' E 012°36'0 0.0
2019-Aug-17 00:59N 55°41' E 012°36'0 0.0
2019-Aug-17 00:29N 55°41' E 012°36'0 0.0
2019-Aug-16 23:59N 55°41' E 012°36'0 0.0
2019-Aug-16 23:29N 55°41' E 012°36'0 0.0
2019-Aug-16 22:59N 55°41' E 012°36'0 0.0
2019-Aug-16 22:29N 55°41' E 012°36'0 0.0
2019-Aug-16 21:59N 55°41' E 012°36'0 0.0
2019-Aug-16 21:29N 55°41' E 012°36'0 0.0
2019-Aug-16 20:59N 55°41' E 012°36'0 0.0
2019-Aug-16 20:29N 55°41' E 012°36'0 0.0
2019-Aug-16 19:59N 55°41' E 012°36'0 0.0
2019-Aug-16 19:29N 55°41' E 012°36'0 0.0
2019-Aug-16 18:59N 55°41' E 012°36'0 0.0
2019-Aug-16 18:29N 55°41' E 012°36'0 0.0
2019-Aug-16 17:59N 55°41' E 012°36'0 0.0
2019-Aug-16 17:29N 55°41' E 012°36'0 0.0
2019-Aug-16 16:59N 55°41' E 012°36'0 0.0
2019-Aug-16 16:29N 55°41' E 012°36'0 0.0
2019-Aug-16 15:59N 55°41' E 012°36'0 0.0
2019-Aug-16 15:29N 55°41' E 012°36'0 0.0
2019-Aug-16 14:59N 55°41' E 012°36'0 0.0
2019-Aug-16 14:29N 55°41' E 012°36'0 0.0
2019-Aug-16 13:59N 55°41' E 012°36'0 0.0
2019-Aug-16 13:29N 55°41' E 012°36'0 0.0
2019-Aug-16 12:59N 55°41' E 012°36'0 0.0
2019-Aug-16 12:29N 55°41' E 012°36'0 0.0
2019-Aug-16 11:59N 55°41' E 012°36'0 0.0
2019-Aug-16 11:29N 55°41' E 012°36'0 0.0
2019-Aug-16 10:59N 55°41' E 012°36'0 0.0
2019-Aug-16 10:29N 55°41' E 012°36'0 0.0
2019-Aug-16 09:59N 55°41' E 012°36'0 0.0
2019-Aug-16 09:29N 55°41' E 012°36'0 0.0
2019-Aug-16 08:59N 55°41' E 012°36'0 0.0
2019-Aug-16 08:29N 55°41' E 012°36'0 0.0
2019-Aug-16 07:59N 55°41' E 012°36'0 0.0
2019-Aug-16 07:29N 55°41' E 012°36'0 0.1
2019-Aug-16 06:56N 55°41' E 012°36'0 0.0
2019-Aug-16 06:29N 55°41' E 012°36'0 0.0
2019-Aug-16 05:59N 55°41' E 012°36'0 0.0
2019-Aug-16 05:29N 55°41' E 012°36'0 0.0
2019-Aug-16 04:56N 55°41' E 012°36'0 0.0
2019-Aug-16 04:29N 55°41' E 012°36'0 0.0
2019-Aug-16 03:59N 55°41' E 012°36'0 0.0
2019-Aug-16 03:29N 55°41' E 012°36'0 0.0
2019-Aug-16 02:59N 55°41' E 012°36'0 0.0
2019-Aug-16 02:29N 55°41' E 012°36'0 0.0
2019-Aug-16 01:59N 55°41' E 012°36'0 0.0
2019-Aug-16 01:29N 55°41' E 012°36'0 0.0
2019-Aug-16 00:59N 55°41' E 012°36'0 0.0
2019-Aug-16 00:29N 55°41' E 012°36'0 0.0
2019-Aug-15 23:59N 55°41' E 012°36'0 0.0
2019-Aug-15 23:29N 55°41' E 012°36'0 0.0
2019-Aug-15 22:59N 55°41' E 012°36'0 0.0
2019-Aug-15 22:29N 55°41' E 012°36'0 0.0
2019-Aug-15 21:59N 55°41' E 012°36'0 0.0
2019-Aug-15 21:29N 55°41' E 012°36'0 0.0
2019-Aug-15 20:59N 55°41' E 012°36'0 0.0
2019-Aug-15 20:26N 55°41' E 012°36'0 0.0
2019-Aug-15 19:59N 55°41' E 012°36'0 0.0
2019-Aug-15 19:29N 55°41' E 012°36'0 0.0
2019-Aug-15 18:56N 55°41' E 012°36'0 0.0
2019-Aug-15 18:29N 55°41' E 012°36'0 0.0
2019-Aug-15 17:59N 55°41' E 012°36'0 0.0
2019-Aug-15 17:23N 55°41' E 012°36'0 0.0
2019-Aug-15 16:59N 55°41' E 012°36'0 0.0
2019-Aug-15 16:29N 55°41' E 012°36'0 0.0
2019-Aug-15 15:59N 55°41' E 012°36'0 0.0
2019-Aug-15 15:29N 55°41' E 012°36'0 0.0
2019-Aug-15 14:59N 55°41' E 012°36'0 0.0
2019-Aug-15 14:29N 55°41' E 012°36'0 0.0
2019-Aug-15 13:59N 55°41' E 012°36'0 0.0
2019-Aug-15 13:29N 55°41' E 012°36'0 0.0
2019-Aug-15 12:59N 55°41' E 012°36'0 0.0
2019-Aug-15 12:29N 55°41' E 012°36'0 0.0
2019-Aug-15 11:59N 55°41' E 012°36'0 0.0
2019-Aug-15 11:23N 55°41' E 012°36'0 0.0
2019-Aug-15 10:56N 55°41' E 012°36'0 0.0
2019-Aug-15 10:29N 55°41' E 012°36'0 0.0
2019-Aug-15 09:59N 55°41' E 012°36'0 0.0
2019-Aug-15 09:29N 55°41' E 012°36'0 0.0
2019-Aug-15 08:59N 55°41' E 012°36'0 0.0
2019-Aug-15 08:29N 55°41' E 012°36'0 0.0
2019-Aug-15 07:59N 55°41' E 012°36'0 0.0
2019-Aug-15 07:29N 55°41' E 012°36'0 0.0
2019-Aug-15 06:59N 55°41' E 012°36'0 0.0
2019-Aug-15 06:29N 55°41' E 012°36'0 0.0
2019-Aug-15 05:59N 55°41' E 012°36'0 0.0
2019-Aug-15 05:29N 55°41' E 012°36'0 0.0
2019-Aug-15 04:59N 55°41' E 012°36'0 0.0
2019-Aug-15 04:29N 55°41' E 012°36'0 0.0
2019-Aug-15 03:59N 55°41' E 012°36'0 0.0
2019-Aug-15 03:29N 55°41' E 012°36'0 0.0
2019-Aug-15 02:59N 55°41' E 012°36'0 0.0
2019-Aug-15 02:29N 55°41' E 012°36'0 0.0
2019-Aug-15 01:59N 55°41' E 012°36'0 0.0
2019-Aug-15 01:29N 55°41' E 012°36'0 0.0
2019-Aug-15 00:59N 55°41' E 012°36'0 0.0
2019-Aug-15 00:29N 55°41' E 012°36'0 0.0
2019-Aug-14 23:59N 55°41' E 012°36'0 0.0
2019-Aug-14 23:29N 55°41' E 012°36'0 0.0
2019-Aug-14 22:59N 55°41' E 012°36'0 0.0
2019-Aug-14 22:29N 55°41' E 012°36'0 0.0
2019-Aug-14 21:59N 55°41' E 012°36'0 0.0
2019-Aug-14 21:29N 55°41' E 012°36'0 0.0
2019-Aug-14 20:59N 55°41' E 012°36'0 0.1
2019-Aug-14 20:30N 55°41' E 012°36'1 2.4
2019-Aug-14 20:00N 55°42' E 012°36'  

Dump ship's entire track history